createdAt,value
2022-10-29T00:00:31.967Z,14.80
2022-10-29T00:01:34.226Z,14.80
2022-10-29T00:02:46.420Z,15.70
2022-10-29T00:03:49.711Z,14.80
2022-10-29T00:04:52.085Z,14.80
2022-10-29T00:06:00.727Z,14.80
2022-10-29T00:07:03.048Z,14.70
2022-10-29T00:08:06.643Z,15.30
2022-10-29T00:09:11.096Z,14.70
2022-10-29T00:10:14.386Z,14.70
2022-10-29T00:11:21.905Z,14.70
2022-10-29T00:12:25.194Z,14.80
2022-10-29T00:13:27.556Z,14.70
2022-10-29T00:14:30.947Z,14.70
2022-10-29T00:15:36.176Z,14.70
2022-10-29T00:16:48.471Z,14.70
2022-10-29T00:17:50.891Z,14.70
2022-10-29T00:18:56.007Z,14.60
2022-10-29T00:19:58.240Z,14.70
2022-10-29T00:21:02.661Z,14.60
2022-10-29T00:22:05.103Z,14.70
2022-10-29T00:23:12.717Z,14.60
2022-10-29T00:24:15.144Z,14.70
2022-10-29T00:25:20.280Z,14.60
2022-10-29T00:26:24.927Z,14.70
2022-10-29T00:27:36.369Z,14.70
2022-10-29T00:28:39.857Z,14.60
2022-10-29T00:29:42.730Z,14.60
2022-10-29T00:30:45.913Z,14.60
2022-10-29T00:31:50.126Z,14.60
2022-10-29T00:32:53.521Z,14.60
2022-10-29T00:33:56.391Z,14.60
2022-10-29T00:35:04.198Z,15.90
2022-10-29T00:36:11.379Z,14.60
2022-10-29T00:37:14.777Z,14.50
2022-10-29T00:38:19.571Z,14.50
2022-10-29T00:39:23.189Z,14.50
2022-10-29T00:40:25.562Z,14.50
2022-10-29T00:41:31.292Z,14.50
2022-10-29T00:42:33.676Z,14.50
2022-10-29T00:43:42.259Z,14.50
2022-10-29T00:44:44.715Z,14.50
2022-10-29T00:45:53.827Z,14.50
2022-10-29T00:47:02.965Z,14.50
2022-10-29T00:48:09.400Z,14.50
2022-10-29T00:49:15.552Z,14.40
2022-10-29T00:50:25.052Z,14.40
2022-10-29T00:51:30.017Z,14.40
2022-10-29T00:52:44.705Z,14.40
2022-10-29T00:53:53.518Z,14.40
2022-10-29T00:54:58.797Z,14.40
2022-10-29T00:56:03.839Z,14.40
2022-10-29T00:57:12.430Z,14.40
2022-10-29T00:58:16.480Z,14.30
2022-10-29T00:59:19.302Z,14.40
2022-10-29T01:00:23.258Z,14.40
2022-10-29T01:01:26.138Z,14.40
2022-10-29T01:02:32.843Z,14.30
2022-10-29T01:03:45.083Z,14.30
2022-10-29T01:04:53.078Z,14.30
2022-10-29T01:05:58.662Z,14.30
2022-10-29T01:07:02.476Z,14.30
2022-10-29T01:08:05.723Z,14.30
2022-10-29T01:09:09.518Z,14.30
2022-10-29T01:10:14.305Z,14.30
2022-10-29T01:11:30.789Z,14.20
2022-10-29T01:12:59.932Z,14.20
2022-10-29T01:14:19.863Z,14.20
2022-10-29T01:15:34.502Z,14.20
2022-10-29T01:16:47.630Z,14.20
2022-10-29T01:18:06.372Z,14.20
2022-10-29T01:19:20.912Z,14.10
2022-10-29T01:21:12.275Z,14.10
2022-10-29T01:22:23.191Z,14.10
2022-10-29T01:24:00.883Z,14.10
2022-10-29T01:25:45.735Z,14.10
2022-10-29T01:27:26.505Z,14.10
2022-10-29T01:28:52.223Z,14.00
2022-10-29T01:30:08.193Z,13.90
2022-10-29T01:31:32.799Z,14.00
2022-10-29T01:32:53.150Z,13.90
2022-10-29T01:34:06.114Z,14.00
2022-10-29T01:35:19.011Z,13.90
2022-10-29T01:36:32.611Z,13.50
2022-10-29T01:37:45.103Z,13.90
2022-10-29T01:39:00.412Z,13.90
2022-10-29T01:40:14.635Z,13.90
2022-10-29T01:41:26.576Z,13.90
2022-10-29T01:42:37.969Z,13.90
2022-10-29T01:43:51.061Z,13.80
2022-10-29T01:45:00.970Z,13.80
2022-10-29T01:46:12.231Z,13.80
2022-10-29T01:47:19.684Z,13.80
2022-10-29T01:48:33.074Z,13.80
2022-10-29T01:49:40.690Z,13.80
2022-10-29T01:50:53.881Z,13.80
2022-10-29T01:52:02.003Z,13.80
2022-10-29T01:53:07.979Z,13.80
2022-10-29T01:54:13.720Z,13.70
2022-10-29T01:55:21.607Z,13.80
2022-10-29T01:56:23.855Z,13.80
2022-10-29T01:57:33.407Z,13.80
2022-10-29T01:58:37.145Z,13.80
2022-10-29T01:59:54.975Z,13.80
2022-10-29T02:01:10.608Z,13.70
2022-10-29T02:02:28.616Z,13.70
2022-10-29T02:03:54.429Z,13.70
2022-10-29T02:05:12.508Z,13.70
2022-10-29T02:06:29.205Z,13.70
2022-10-29T02:07:45.191Z,13.70
2022-10-29T02:09:02.082Z,13.70
2022-10-29T02:10:17.664Z,13.70
2022-10-29T02:11:28.158Z,13.70
2022-10-29T02:12:39.331Z,13.80
2022-10-29T02:13:51.581Z,13.80
2022-10-29T02:14:59.990Z,13.80
2022-10-29T02:16:09.495Z,13.80
2022-10-29T02:17:11.718Z,13.80
2022-10-29T02:18:18.567Z,13.80
2022-10-29T02:19:21.306Z,13.70
2022-10-29T02:20:24.533Z,13.80
2022-10-29T02:21:31.233Z,13.70
2022-10-29T02:22:34.897Z,13.80
2022-10-29T02:23:37.512Z,13.70
2022-10-29T02:24:40.976Z,13.70
2022-10-29T02:25:43.428Z,13.80
2022-10-29T02:26:46.792Z,13.70
2022-10-29T02:27:49.552Z,13.70
2022-10-29T02:28:52.754Z,13.80
2022-10-29T02:29:56.929Z,13.70
2022-10-29T02:31:00.123Z,13.70
2022-10-29T02:32:02.439Z,13.70
2022-10-29T02:33:05.996Z,13.70
2022-10-29T02:34:10.875Z,12.70
2022-10-29T02:35:14.060Z,13.70
2022-10-29T02:36:16.425Z,13.60
2022-10-29T02:37:19.911Z,13.70
2022-10-29T02:38:31.095Z,13.70
2022-10-29T02:39:34.718Z,13.70
2022-10-29T02:40:37.082Z,13.70
2022-10-29T02:41:40.292Z,13.70
2022-10-29T02:42:42.696Z,13.00
2022-10-29T02:43:50.335Z,13.60
2022-10-29T02:44:56.899Z,13.60
2022-10-29T02:46:16.615Z,13.60
2022-10-29T02:47:19.121Z,13.60
2022-10-29T02:48:22.422Z,13.50
2022-10-29T02:49:32.464Z,13.60
2022-10-29T02:50:36.125Z,13.60
2022-10-29T02:51:38.537Z,13.60
2022-10-29T02:52:41.888Z,13.60
2022-10-29T02:53:44.822Z,13.50
2022-10-29T02:54:48.299Z,13.50
2022-10-29T02:55:50.705Z,13.50
2022-10-29T02:56:54.170Z,13.50
2022-10-29T02:57:56.871Z,13.40
2022-10-29T02:59:00.774Z,13.50
2022-10-29T03:00:03.760Z,13.40
2022-10-29T03:01:08.066Z,13.40
2022-10-29T03:02:10.483Z,13.40
2022-10-29T03:03:13.820Z,13.40
2022-10-29T03:04:16.207Z,13.40
2022-10-29T03:05:21.242Z,13.30
2022-10-29T03:06:23.618Z,13.40
2022-10-29T03:07:26.974Z,13.30
2022-10-29T03:08:29.252Z,13.40
2022-10-29T03:09:32.597Z,13.30
2022-10-29T03:10:41.613Z,13.30
2022-10-29T03:11:48.242Z,13.30
2022-10-29T03:12:50.433Z,13.30
2022-10-29T03:13:53.819Z,13.30
2022-10-29T03:14:56.139Z,12.70
2022-10-29T03:15:59.979Z,13.30
2022-10-29T03:17:02.243Z,13.30
2022-10-29T03:18:06.651Z,13.30
2022-10-29T03:19:08.892Z,13.30
2022-10-29T03:20:12.397Z,13.30
2022-10-29T03:21:20.212Z,13.30
2022-10-29T03:22:23.452Z,13.30
2022-10-29T03:23:25.797Z,14.30
2022-10-29T03:24:29.221Z,13.30
2022-10-29T03:25:31.492Z,13.30
2022-10-29T03:26:35.029Z,12.60
2022-10-29T03:27:43.475Z,13.30
2022-10-29T03:29:48.776Z,13.20
2022-10-29T03:31:20.775Z,13.30
2022-10-29T03:32:24.267Z,13.30
2022-10-29T03:33:28.522Z,13.30
2022-10-29T03:34:30.731Z,13.40
2022-10-29T03:35:34.055Z,13.40
2022-10-29T03:36:38.788Z,14.20
2022-10-29T03:37:41.480Z,13.40
2022-10-29T03:38:44.681Z,13.40
2022-10-29T03:39:46.937Z,13.40
2022-10-29T03:40:53.221Z,13.40
2022-10-29T03:41:55.484Z,13.40
2022-10-29T03:42:59.273Z,13.40
2022-10-29T03:44:01.808Z,13.40
2022-10-29T03:45:05.357Z,13.40
2022-10-29T03:46:07.710Z,13.40
2022-10-29T03:47:10.856Z,13.40
2022-10-29T03:48:13.315Z,13.40
2022-10-29T03:49:16.588Z,13.40
2022-10-29T03:50:21.515Z,13.40
2022-10-29T03:51:26.091Z,13.40
2022-10-29T03:52:30.138Z,13.40
2022-10-29T03:53:34.967Z,13.40
2022-10-29T03:54:37.222Z,13.30
2022-10-29T03:55:40.398Z,13.40
2022-10-29T03:56:43.587Z,13.40
2022-10-29T03:57:45.927Z,13.40
2022-10-29T03:58:49.481Z,13.40
2022-10-29T03:59:52.712Z,13.40
2022-10-29T04:00:58.452Z,13.40
2022-10-29T04:02:01.431Z,13.40
2022-10-29T04:03:05.041Z,13.40
2022-10-29T04:04:09.400Z,13.40
2022-10-29T04:05:12.706Z,13.40
2022-10-29T04:06:16.494Z,13.40
2022-10-29T04:07:20.391Z,13.40
2022-10-29T04:08:24.118Z,13.40
2022-10-29T04:09:27.802Z,13.40
2022-10-29T04:10:31.370Z,13.40
2022-10-29T04:11:34.756Z,13.40
2022-10-29T04:12:38.144Z,13.50
2022-10-29T04:13:41.768Z,13.50
2022-10-29T04:14:46.376Z,13.50
2022-10-29T04:15:49.531Z,13.50
2022-10-29T04:16:51.804Z,13.50
2022-10-29T04:17:55.350Z,13.50
2022-10-29T04:18:58.044Z,13.50
2022-10-29T04:20:01.460Z,13.50
2022-10-29T04:22:40.312Z,13.50
2022-10-29T04:26:55.383Z,13.50
2022-10-29T04:29:31.096Z,13.60
2022-10-29T04:30:33.703Z,13.70
2022-10-29T04:31:37.855Z,13.60
2022-10-29T04:32:40.568Z,13.60
2022-10-29T04:33:43.759Z,13.70
2022-10-29T04:34:46.331Z,13.60
2022-10-29T04:35:54.180Z,13.70
2022-10-29T04:36:56.475Z,13.70
2022-10-29T04:37:59.751Z,13.70
2022-10-29T04:39:04.299Z,13.80
2022-10-29T04:40:08.475Z,13.80
2022-10-29T04:41:25.889Z,13.40
2022-10-29T04:42:36.044Z,13.80
2022-10-29T04:43:39.222Z,13.80
2022-10-29T04:44:41.426Z,13.80
2022-10-29T04:45:45.145Z,13.90
2022-10-29T04:46:47.538Z,13.80
2022-10-29T04:48:00.109Z,13.70
2022-10-29T04:49:03.826Z,13.80
2022-10-29T04:50:06.795Z,13.80
2022-10-29T04:51:20.717Z,13.80
2022-10-29T04:52:23.013Z,13.80
2022-10-29T04:53:26.460Z,13.80
2022-10-29T04:54:32.495Z,13.90
2022-10-29T04:55:37.794Z,13.80
2022-10-29T04:56:43.474Z,13.90
2022-10-29T04:57:49.544Z,12.30
2022-10-29T04:58:57.423Z,14.00
2022-10-29T04:59:59.687Z,14.00
2022-10-29T05:01:05.112Z,14.10
2022-10-29T05:02:07.964Z,13.10
2022-10-29T05:03:11.263Z,14.10
2022-10-29T05:04:13.749Z,14.10
2022-10-29T05:05:18.232Z,14.00
2022-10-29T05:06:20.571Z,14.00
2022-10-29T05:07:23.924Z,14.10
2022-10-29T05:08:26.444Z,14.10
2022-10-29T05:09:35.096Z,14.20
2022-10-29T05:10:39.612Z,14.20
2022-10-29T05:11:42.927Z,14.20
2022-10-29T05:12:45.179Z,14.20
2022-10-29T05:13:48.797Z,14.10
2022-10-29T05:14:51.234Z,13.00
2022-10-29T05:15:54.739Z,14.20
2022-10-29T05:16:57.029Z,14.20
2022-10-29T05:18:00.691Z,14.30
2022-10-29T05:19:05.050Z,14.30
2022-10-29T05:20:09.427Z,14.30
2022-10-29T05:21:11.745Z,14.40
2022-10-29T05:22:15.099Z,14.40
2022-10-29T05:23:17.362Z,14.40
2022-10-29T05:24:21.046Z,14.50
2022-10-29T05:25:24.778Z,14.50
2022-10-29T05:26:28.130Z,14.50
2022-10-29T05:27:32.412Z,14.60
2022-10-29T05:28:35.654Z,14.50
2022-10-29T05:29:38.320Z,14.50
2022-10-29T05:30:43.978Z,14.40
2022-10-29T05:31:46.163Z,14.40
2022-10-29T05:32:49.620Z,14.50
2022-10-29T05:33:55.587Z,14.50
2022-10-29T05:34:58.474Z,14.60
2022-10-29T05:36:04.850Z,14.60
2022-10-29T05:37:07.139Z,14.60
2022-10-29T05:38:11.908Z,14.60
2022-10-29T05:39:14.115Z,14.60
2022-10-29T05:40:17.642Z,14.60
2022-10-29T05:41:21.483Z,14.60
2022-10-29T05:42:24.987Z,14.60
2022-10-29T05:43:27.455Z,14.50
2022-10-29T05:44:30.864Z,14.50
2022-10-29T05:45:33.656Z,14.60
2022-10-29T05:46:37.148Z,14.60
2022-10-29T05:47:39.984Z,14.40
2022-10-29T05:48:43.509Z,14.60
2022-10-29T05:49:45.731Z,14.60
2022-10-29T05:50:49.569Z,14.60
2022-10-29T05:51:53.147Z,14.60
2022-10-29T05:52:59.156Z,14.70
2022-10-29T05:54:02.119Z,14.60
2022-10-29T05:55:06.316Z,14.60
2022-10-29T05:56:09.811Z,14.70
2022-10-29T05:57:13.654Z,14.70
2022-10-29T05:58:17.233Z,14.70
2022-10-29T05:59:19.630Z,14.70
2022-10-29T06:00:23.285Z,14.80
2022-10-29T06:01:25.742Z,14.70
2022-10-29T06:02:29.235Z,14.70
2022-10-29T06:03:32.624Z,14.70
2022-10-29T06:04:35.201Z,14.70
2022-10-29T06:05:38.468Z,14.70
2022-10-29T06:06:41.372Z,14.70
2022-10-29T06:07:44.708Z,14.70
2022-10-29T06:08:52.835Z,14.70
2022-10-29T06:09:55.017Z,14.70
2022-10-29T06:11:01.421Z,15.50
2022-10-29T06:12:04.349Z,14.70
2022-10-29T06:13:13.012Z,14.60
2022-10-29T06:14:15.577Z,14.60
2022-10-29T06:15:19.157Z,14.70
2022-10-29T06:16:21.479Z,14.80
2022-10-29T06:17:25.070Z,14.70
2022-10-29T06:18:30.815Z,14.70
2022-10-29T06:19:34.271Z,14.70
2022-10-29T06:20:38.866Z,14.70
2022-10-29T06:21:43.514Z,14.70
2022-10-29T06:22:45.907Z,14.70
2022-10-29T06:23:51.975Z,14.80
2022-10-29T06:24:54.349Z,14.80
2022-10-29T06:26:00.772Z,14.80
2022-10-29T06:27:03.017Z,14.60
2022-10-29T06:28:19.445Z,14.60
2022-10-29T06:29:22.122Z,14.60
2022-10-29T06:30:30.255Z,14.70
2022-10-29T06:31:32.582Z,14.70
2022-10-29T06:32:35.941Z,14.70
2022-10-29T06:33:39.625Z,14.80
2022-10-29T06:34:43.675Z,14.80
2022-10-29T06:35:47.377Z,14.80
2022-10-29T06:36:52.816Z,14.80
2022-10-29T06:37:56.409Z,14.90
2022-10-29T06:38:59.238Z,14.90
2022-10-29T06:40:02.513Z,15.00
2022-10-29T06:41:05.332Z,14.90
2022-10-29T06:42:09.125Z,15.00
2022-10-29T06:43:12.597Z,15.10
2022-10-29T06:44:17.853Z,15.30
2022-10-29T06:45:20.150Z,15.40
2022-10-29T06:46:23.902Z,15.50
2022-10-29T06:47:26.258Z,14.70
2022-10-29T06:48:29.592Z,15.70
2022-10-29T06:49:34.361Z,15.80
2022-10-29T06:50:37.702Z,15.80
2022-10-29T06:51:40.219Z,15.90
2022-10-29T06:52:43.997Z,15.90
2022-10-29T06:53:47.344Z,16.10
2022-10-29T06:54:52.638Z,16.20
2022-10-29T06:55:59.661Z,16.40
2022-10-29T06:57:04.377Z,16.30
2022-10-29T06:58:11.765Z,16.40
2022-10-29T06:59:14.945Z,16.50
2022-10-29T07:00:18.913Z,16.60
2022-10-29T07:01:23.606Z,16.60
2022-10-29T07:02:28.074Z,16.70
2022-10-29T07:03:31.345Z,17.00
2022-10-29T07:04:33.791Z,17.10
2022-10-29T07:05:37.403Z,17.10
2022-10-29T07:06:42.621Z,17.30
2022-10-29T07:07:46.193Z,17.40
2022-10-29T07:08:48.356Z,17.50
2022-10-29T07:09:54.694Z,17.60
2022-10-29T07:10:57.508Z,18.20
2022-10-29T07:12:00.786Z,17.90
2022-10-29T07:13:03.846Z,18.00
2022-10-29T07:14:08.548Z,18.00
2022-10-29T07:15:14.781Z,18.10
2022-10-29T07:16:19.746Z,18.00
2022-10-29T07:17:22.039Z,18.10
2022-10-29T07:18:25.551Z,18.20
2022-10-29T07:19:28.550Z,18.20
2022-10-29T07:20:35.143Z,18.20
2022-10-29T07:21:38.513Z,18.30
2022-10-29T07:22:46.648Z,19.20
2022-10-29T07:23:50.291Z,18.50
2022-10-29T07:24:54.828Z,18.70
2022-10-29T07:26:00.559Z,18.80
2022-10-29T07:27:02.882Z,18.80
2022-10-29T07:28:08.361Z,18.80
2022-10-29T07:29:11.180Z,19.00
2022-10-29T07:30:14.705Z,19.10
2022-10-29T07:31:19.269Z,19.20
2022-10-29T07:32:23.382Z,19.40
2022-10-29T07:33:29.686Z,19.40
2022-10-29T07:34:41.449Z,19.60
2022-10-29T07:35:45.768Z,19.70
2022-10-29T07:36:48.097Z,19.90
2022-10-29T07:37:51.320Z,20.00
2022-10-29T07:38:53.544Z,20.10
2022-10-29T07:39:56.820Z,20.30
2022-10-29T07:40:59.266Z,20.30
2022-10-29T07:42:02.649Z,20.40
2022-10-29T07:43:05.024Z,20.40
2022-10-29T07:44:08.376Z,20.50
2022-10-29T07:45:12.132Z,20.60
2022-10-29T07:46:15.461Z,20.80
2022-10-29T07:47:19.205Z,21.00
2022-10-29T07:48:28.109Z,21.10
2022-10-29T07:49:30.328Z,21.20
2022-10-29T07:50:33.765Z,21.40
2022-10-29T07:51:37.073Z,21.50
2022-10-29T07:52:39.916Z,21.50
2022-10-29T07:53:43.330Z,21.60
2022-10-29T07:54:45.910Z,21.60
2022-10-29T07:55:54.308Z,21.40
2022-10-29T07:56:56.567Z,21.30
2022-10-29T07:58:01.466Z,21.40
2022-10-29T07:59:03.988Z,21.30
2022-10-29T08:00:08.899Z,21.30
2022-10-29T08:01:18.507Z,21.20
2022-10-29T08:02:22.313Z,21.20
2022-10-29T08:03:25.432Z,21.20
2022-10-29T08:04:27.857Z,21.30
2022-10-29T08:05:32.139Z,21.10
2022-10-29T08:06:34.545Z,21.00
2022-10-29T08:07:37.823Z,20.90
2022-10-29T08:08:40.265Z,20.80
2022-10-29T08:09:43.778Z,20.90
2022-10-29T08:10:46.138Z,20.80
2022-10-29T08:11:49.498Z,20.70
2022-10-29T08:12:54.712Z,20.70
2022-10-29T08:13:58.273Z,20.70
2022-10-29T08:15:00.628Z,20.80
2022-10-29T08:16:03.879Z,20.80
2022-10-29T08:17:08.319Z,20.90
2022-10-29T08:18:18.160Z,20.80
2022-10-29T08:19:20.395Z,20.80
2022-10-29T08:20:26.100Z,20.90
2022-10-29T08:21:29.533Z,20.90
2022-10-29T08:22:32.082Z,20.80
2022-10-29T08:23:35.356Z,20.90
2022-10-29T08:24:37.630Z,20.80
2022-10-29T08:25:43.072Z,20.80
2022-10-29T08:26:45.445Z,20.80
2022-10-29T08:27:59.727Z,20.90
2022-10-29T08:29:02.411Z,20.90
2022-10-29T08:30:06.449Z,20.90
2022-10-29T08:31:09.140Z,20.80
2022-10-29T08:32:12.318Z,20.90
2022-10-29T08:33:17.236Z,20.80
2022-10-29T08:34:19.543Z,20.70
2022-10-29T08:35:23.560Z,20.60
2022-10-29T08:36:29.272Z,20.50
2022-10-29T08:37:31.919Z,20.30
2022-10-29T08:38:36.640Z,20.30
2022-10-29T08:39:38.866Z,20.20
2022-10-29T08:41:00.614Z,20.30
2022-10-29T08:42:23.555Z,20.30
2022-10-29T08:45:25.062Z,20.30
2022-10-29T08:46:42.266Z,20.40
2022-10-29T08:48:16.948Z,20.40
2022-10-29T08:49:37.997Z,20.30
2022-10-29T08:50:50.450Z,20.20
2022-10-29T08:52:06.130Z,20.00
2022-10-29T08:53:28.668Z,20.00
2022-10-29T08:54:40.885Z,19.90
2022-10-29T08:55:44.522Z,19.90
2022-10-29T08:56:53.158Z,19.90
2022-10-29T08:57:58.548Z,18.80
2022-10-29T08:59:07.866Z,20.00
2022-10-29T09:00:20.532Z,20.00
2022-10-29T09:01:25.471Z,20.10
2022-10-29T09:02:30.132Z,20.30
2022-10-29T09:03:34.109Z,20.20
2022-10-29T09:04:39.103Z,20.10
2022-10-29T09:05:55.114Z,20.10
2022-10-29T09:07:15.077Z,20.00
2022-10-29T09:08:35.438Z,19.90
2022-10-29T09:09:47.623Z,19.80
2022-10-29T09:11:01.517Z,19.70
2022-10-29T09:12:43.611Z,19.60
2022-10-29T09:14:01.054Z,19.60
2022-10-29T09:15:29.003Z,19.40
2022-10-29T09:16:44.970Z,19.30
2022-10-29T09:18:05.550Z,19.20
2022-10-29T09:19:25.620Z,19.00
2022-10-29T09:20:44.331Z,18.80
2022-10-29T09:22:05.536Z,18.90
2022-10-29T09:23:29.021Z,18.90
2022-10-29T09:24:41.890Z,18.80
2022-10-29T09:25:54.427Z,18.00
2022-10-29T09:27:06.754Z,18.00
2022-10-29T09:28:28.358Z,18.70
2022-10-29T09:30:02.281Z,18.70
2022-10-29T09:31:23.049Z,18.70
2022-10-29T09:32:34.770Z,18.80
2022-10-29T09:33:48.210Z,18.80
2022-10-29T09:35:02.646Z,18.70
2022-10-29T09:36:16.840Z,18.70
2022-10-29T09:37:26.195Z,18.60
2022-10-29T09:38:34.954Z,18.60
2022-10-29T09:39:41.956Z,18.60
2022-10-29T09:40:45.839Z,18.70
2022-10-29T09:41:53.713Z,18.60
2022-10-29T09:42:59.230Z,18.60
2022-10-29T09:44:07.671Z,18.60
2022-10-29T09:45:19.238Z,18.50
2022-10-29T09:46:35.434Z,18.60
2022-10-29T09:47:50.300Z,18.60
2022-10-29T09:49:09.854Z,18.60
2022-10-29T09:50:28.181Z,18.70
2022-10-29T09:51:43.758Z,18.70
2022-10-29T09:52:50.647Z,18.70
2022-10-29T09:53:53.582Z,18.70
2022-10-29T09:54:58.509Z,18.70
2022-10-29T09:56:01.457Z,18.60
2022-10-29T09:57:13.461Z,18.60
2022-10-29T09:58:21.062Z,18.60
2022-10-29T09:59:33.334Z,18.50
2022-10-29T10:00:37.192Z,18.50
2022-10-29T10:01:43.438Z,18.50
2022-10-29T10:02:55.041Z,18.50
2022-10-29T10:04:14.400Z,18.60
2022-10-29T10:05:27.039Z,18.70
2022-10-29T10:06:30.315Z,18.60
2022-10-29T10:07:34.148Z,18.60
2022-10-29T10:09:00.089Z,18.50
2022-10-29T10:10:20.504Z,18.40
2022-10-29T10:11:25.022Z,18.30
2022-10-29T10:12:30.285Z,18.20
2022-10-29T10:13:36.126Z,18.20
2022-10-29T10:14:39.922Z,18.10
2022-10-29T10:15:57.599Z,17.90
2022-10-29T10:17:05.995Z,18.80
2022-10-29T10:18:20.079Z,17.90
2022-10-29T10:19:24.506Z,17.90
2022-10-29T10:20:38.551Z,17.80
2022-10-29T10:21:42.139Z,17.80
2022-10-29T10:22:47.210Z,17.80
2022-10-29T10:23:52.969Z,17.80
2022-10-29T10:24:55.292Z,17.80
2022-10-29T10:26:04.105Z,17.70
2022-10-29T10:27:26.222Z,17.80
2022-10-29T10:28:31.746Z,17.80
2022-10-29T10:29:42.688Z,17.70
2022-10-29T10:30:50.693Z,17.80
2022-10-29T10:32:17.528Z,17.80
2022-10-29T10:33:25.502Z,17.70
2022-10-29T10:34:40.654Z,17.60
2022-10-29T10:35:43.143Z,17.60
2022-10-29T10:36:56.060Z,17.60
2022-10-29T10:38:06.781Z,17.60
2022-10-29T10:39:24.582Z,17.60
2022-10-29T10:40:26.901Z,17.60
2022-10-29T10:41:35.536Z,17.60
2022-10-29T10:42:44.439Z,17.70
2022-10-29T10:43:54.869Z,17.70
2022-10-29T10:45:01.414Z,17.70
2022-10-29T10:46:12.146Z,17.40
2022-10-29T10:47:17.689Z,17.80
2022-10-29T10:48:20.169Z,17.80
2022-10-29T10:49:32.941Z,18.50
2022-10-29T10:50:42.506Z,17.90
2022-10-29T10:51:49.942Z,17.90
2022-10-29T10:52:55.470Z,18.00
2022-10-29T10:54:00.400Z,18.00
2022-10-29T10:55:08.443Z,18.00
2022-10-29T10:56:23.656Z,18.00
2022-10-29T10:57:34.488Z,17.90
2022-10-29T10:58:45.258Z,17.80
2022-10-29T11:00:00.446Z,17.80
2022-10-29T11:01:09.305Z,17.90
2022-10-29T11:02:26.402Z,17.90
2022-10-29T11:03:37.272Z,18.00
2022-10-29T11:04:44.016Z,18.00
2022-10-29T11:05:56.834Z,18.00
2022-10-29T11:07:06.102Z,18.10
2022-10-29T11:08:19.573Z,18.10
2022-10-29T11:09:31.212Z,18.20
2022-10-29T11:10:40.949Z,18.40
2022-10-29T11:11:58.998Z,18.50
2022-10-29T11:13:11.004Z,18.60
2022-10-29T11:14:21.521Z,18.60
2022-10-29T11:15:37.296Z,18.60
2022-10-29T11:16:45.407Z,18.70
2022-10-29T11:17:56.101Z,18.60
2022-10-29T11:19:06.559Z,18.70
2022-10-29T11:20:22.852Z,18.70
2022-10-29T11:21:34.361Z,18.60
2022-10-29T11:22:53.708Z,18.60
2022-10-29T11:24:04.274Z,18.60
2022-10-29T11:25:19.136Z,18.50
2022-10-29T11:26:31.266Z,18.30
2022-10-29T11:27:45.708Z,19.90
2022-10-29T11:29:00.092Z,18.50
2022-10-29T11:30:07.273Z,18.50
2022-10-29T11:31:18.536Z,18.40
2022-10-29T11:32:29.192Z,17.40
2022-10-29T11:33:42.843Z,18.30
2022-10-29T11:34:55.191Z,18.20
2022-10-29T11:36:23.123Z,18.20
2022-10-29T11:37:34.142Z,18.20
2022-10-29T11:38:50.375Z,18.20
2022-10-29T11:40:01.313Z,18.20
2022-10-29T11:41:15.256Z,18.30
2022-10-29T11:42:18.508Z,18.30
2022-10-29T11:43:22.133Z,18.30
2022-10-29T11:44:28.550Z,18.30
2022-10-29T11:45:48.975Z,18.20
2022-10-29T11:47:12.132Z,18.20
2022-10-29T11:49:49.825Z,18.20
2022-10-29T11:51:02.006Z,18.20
2022-10-29T11:52:11.174Z,18.40
2022-10-29T11:53:32.662Z,18.40
2022-10-29T11:54:55.466Z,18.40
2022-10-29T11:56:12.965Z,18.40
2022-10-29T11:57:26.185Z,18.40
2022-10-29T11:58:40.532Z,18.30
2022-10-29T12:00:04.372Z,18.30
2022-10-29T12:01:29.162Z,18.20
2022-10-29T12:02:57.466Z,18.30
2022-10-29T12:04:25.587Z,18.30
2022-10-29T12:05:38.099Z,18.30
2022-10-29T12:06:54.916Z,18.50
2022-10-29T12:08:19.421Z,18.60
2022-10-29T12:09:59.282Z,18.70
2022-10-29T12:11:13.727Z,17.80
2022-10-29T12:12:25.799Z,18.80
2022-10-29T12:13:51.490Z,18.90
2022-10-29T12:15:08.372Z,18.90
2022-10-29T12:16:28.777Z,19.00
2022-10-29T12:17:41.518Z,19.00
2022-10-29T12:18:52.885Z,18.90
2022-10-29T12:21:16.214Z,19.00
2022-10-29T12:22:40.735Z,19.00
2022-10-29T12:23:56.636Z,19.10
2022-10-29T12:25:20.803Z,19.10
2022-10-29T12:26:39.803Z,19.00
2022-10-29T12:27:52.320Z,19.60
2022-10-29T12:29:03.747Z,19.00
2022-10-29T12:30:13.924Z,18.80
2022-10-29T12:31:27.863Z,18.70
2022-10-29T12:32:38.836Z,18.70
2022-10-29T12:33:53.098Z,18.60
2022-10-29T12:35:03.176Z,18.70
2022-10-29T12:36:16.161Z,18.70
2022-10-29T12:37:29.876Z,18.80
2022-10-29T12:38:39.813Z,19.20
2022-10-29T12:39:49.906Z,18.70
2022-10-29T12:41:01.236Z,18.70
2022-10-29T12:42:15.544Z,18.60
2022-10-29T12:43:24.736Z,18.60
2022-10-29T12:44:43.878Z,18.60
2022-10-29T12:47:33.362Z,18.60
2022-10-29T12:48:49.872Z,18.60
2022-10-29T12:50:12.968Z,18.60
2022-10-29T12:51:24.810Z,18.60
2022-10-29T12:52:39.884Z,18.60
2022-10-29T12:53:53.540Z,18.80
2022-10-29T12:55:06.037Z,18.80
2022-10-29T12:56:14.607Z,18.70
2022-10-29T12:57:31.442Z,18.80
2022-10-29T12:58:53.297Z,18.80
2022-10-29T12:59:55.606Z,19.00
2022-10-29T13:01:00.893Z,18.70
2022-10-29T13:02:30.473Z,18.80
2022-10-29T13:04:02.465Z,18.80
2022-10-29T13:05:37.880Z,18.80
2022-10-29T13:06:46.249Z,18.70
2022-10-29T13:08:32.528Z,18.60
2022-10-29T13:09:44.287Z,18.50
2022-10-29T13:10:52.523Z,18.50
2022-10-29T13:11:58.517Z,18.50
2022-10-29T13:13:05.663Z,18.50
2022-10-29T13:14:09.792Z,18.30
2022-10-29T13:15:15.696Z,18.30
2022-10-29T13:16:29.565Z,18.30
2022-10-29T13:17:38.903Z,18.20
2022-10-29T13:18:53.241Z,18.20
2022-10-29T13:20:00.937Z,18.20
2022-10-29T13:21:08.921Z,18.10
2022-10-29T13:22:47.850Z,18.20
2022-10-29T13:24:04.632Z,18.00
2022-10-29T13:25:44.911Z,18.00
2022-10-29T13:27:03.316Z,19.50
2022-10-29T13:28:45.931Z,18.30
2022-10-29T13:29:52.186Z,18.00
2022-10-29T13:31:32.946Z,18.00
2022-10-29T13:32:41.068Z,17.90
2022-10-29T13:33:50.643Z,17.90
2022-10-29T13:34:56.951Z,17.90
2022-10-29T13:36:02.883Z,17.90
2022-10-29T13:37:53.775Z,17.90
2022-10-29T13:39:08.199Z,17.90
2022-10-29T13:40:43.092Z,17.90
2022-10-29T13:41:54.833Z,17.80
2022-10-29T13:43:04.760Z,17.80
2022-10-29T13:44:14.031Z,17.80
2022-10-29T13:45:17.641Z,17.70
2022-10-29T13:46:33.315Z,17.80
2022-10-29T13:47:36.034Z,17.70
2022-10-29T13:48:43.269Z,17.60
2022-10-29T13:49:49.485Z,17.60
2022-10-29T13:50:54.938Z,17.50
2022-10-29T13:52:05.310Z,17.60
2022-10-29T13:53:15.877Z,17.50
2022-10-29T13:54:32.530Z,17.50
2022-10-29T13:55:38.167Z,17.50
2022-10-29T13:56:50.242Z,17.50
2022-10-29T13:58:02.948Z,17.50
2022-10-29T13:59:20.028Z,17.50
2022-10-29T14:00:23.867Z,17.50
2022-10-29T14:01:33.683Z,17.40
2022-10-29T14:02:55.413Z,17.40
2022-10-29T14:04:06.624Z,17.40
2022-10-29T14:05:21.610Z,17.40
2022-10-29T14:06:29.954Z,17.10
2022-10-29T14:07:42.535Z,17.40
2022-10-29T14:08:54.109Z,17.30
2022-10-29T14:10:07.228Z,17.30
2022-10-29T14:11:15.653Z,17.30
2022-10-29T14:12:24.490Z,17.30
2022-10-29T14:13:32.487Z,17.40
2022-10-29T14:14:44.876Z,17.30
2022-10-29T14:16:02.855Z,17.30
2022-10-29T14:17:14.051Z,17.30
2022-10-29T14:18:24.282Z,16.50
2022-10-29T14:19:30.548Z,17.20
2022-10-29T14:20:33.825Z,17.20
2022-10-29T14:21:39.730Z,17.00
2022-10-29T14:22:42.889Z,16.90
2022-10-29T14:23:59.715Z,16.90
2022-10-29T14:25:04.879Z,16.90
2022-10-29T14:27:20.211Z,16.90
2022-10-29T14:28:27.003Z,16.90
2022-10-29T14:29:29.594Z,16.90
2022-10-29T14:30:32.861Z,16.90
2022-10-29T14:31:35.208Z,16.90
2022-10-29T14:32:40.969Z,16.90
2022-10-29T14:33:44.379Z,16.90
2022-10-29T14:34:51.302Z,16.90
2022-10-29T14:35:59.080Z,17.00
2022-10-29T14:37:07.274Z,16.90
2022-10-29T14:38:13.010Z,16.90
2022-10-29T14:39:32.443Z,16.90
2022-10-29T14:40:43.351Z,16.90
2022-10-29T14:41:50.211Z,16.90
2022-10-29T14:42:57.850Z,16.90
2022-10-29T14:44:11.080Z,16.90
2022-10-29T14:45:20.588Z,16.90
2022-10-29T14:46:28.436Z,16.90
2022-10-29T14:47:34.820Z,16.90
2022-10-29T14:48:39.162Z,16.90
2022-10-29T14:49:50.525Z,16.80
2022-10-29T14:50:56.761Z,17.20
2022-10-29T14:52:04.482Z,16.70
2022-10-29T14:53:26.629Z,16.70
2022-10-29T14:54:35.085Z,16.70
2022-10-29T14:55:42.127Z,16.60
2022-10-29T14:56:49.277Z,16.70